createdAt,value
2018-06-12T00:01:49.837Z,16.80
2018-06-12T00:04:18.270Z,16.90
2018-06-12T00:06:46.710Z,16.80
2018-06-12T00:09:15.117Z,16.90
2018-06-12T00:11:43.570Z,16.90
2018-06-12T00:14:12.014Z,16.80
2018-06-12T00:16:40.465Z,17.00
2018-06-12T00:19:08.878Z,17.00
2018-06-12T00:21:37.329Z,17.10
2018-06-12T00:24:05.869Z,17.10
2018-06-12T00:26:34.285Z,17.20
2018-06-12T00:29:02.721Z,17.20
2018-06-12T00:31:31.150Z,17.30
2018-06-12T00:33:59.642Z,17.40
2018-06-12T00:36:28.053Z,17.40
2018-06-12T00:38:56.497Z,17.30
2018-06-12T00:41:24.918Z,17.20
2018-06-12T00:43:53.409Z,17.20
2018-06-12T00:46:21.885Z,17.20
2018-06-12T00:48:50.363Z,17.20
2018-06-12T00:51:18.781Z,17.20
2018-06-12T00:53:47.252Z,17.10
2018-06-12T00:56:26.909Z,17.10
2018-06-12T00:58:55.365Z,17.00
2018-06-12T01:01:23.801Z,17.00
2018-06-12T01:03:52.253Z,17.20
2018-06-12T01:06:20.663Z,17.20
2018-06-12T01:08:49.102Z,17.10
2018-06-12T01:11:17.537Z,17.10
2018-06-12T01:13:45.978Z,17.30
2018-06-12T01:16:14.396Z,17.30
2018-06-12T01:18:42.832Z,17.20
2018-06-12T01:21:11.282Z,17.00
2018-06-12T01:23:39.725Z,17.00
2018-06-12T01:26:08.142Z,17.10
2018-06-12T01:28:36.577Z,17.10
2018-06-12T01:31:05.058Z,17.10
2018-06-12T01:33:33.513Z,17.20
2018-06-12T01:36:01.936Z,17.10
2018-06-12T01:38:30.350Z,17.00
2018-06-12T01:40:58.789Z,17.00
2018-06-12T01:43:27.202Z,17.00
2018-06-12T01:45:55.648Z,16.90
2018-06-12T01:48:24.077Z,17.20
2018-06-12T01:50:52.506Z,17.30
2018-06-12T01:53:20.909Z,17.30
2018-06-12T01:55:49.346Z,17.10
2018-06-12T01:58:17.753Z,17.20
2018-06-12T02:00:46.192Z,17.30
2018-06-12T02:03:14.617Z,17.10
2018-06-12T02:05:43.058Z,17.20
2018-06-12T02:08:11.466Z,17.20
2018-06-12T02:10:39.897Z,17.20
2018-06-12T02:13:08.317Z,17.00
2018-06-12T02:15:36.784Z,16.90
2018-06-12T02:18:05.231Z,16.90
2018-06-12T02:20:33.677Z,17.00
2018-06-12T02:23:02.127Z,17.10
2018-06-12T02:25:30.557Z,17.30
2018-06-12T02:27:58.978Z,17.40
2018-06-12T02:30:27.418Z,17.40
2018-06-12T02:32:55.864Z,17.30
2018-06-12T02:35:24.326Z,17.10
2018-06-12T02:37:52.754Z,17.20
2018-06-12T02:40:21.191Z,17.10
2018-06-12T02:42:49.639Z,17.20
2018-06-12T02:45:18.070Z,17.30
2018-06-12T02:47:46.509Z,17.40
2018-06-12T02:50:14.938Z,17.30
2018-06-12T02:52:43.358Z,17.40
2018-06-12T02:55:11.794Z,17.30
2018-06-12T02:57:40.214Z,17.00
2018-06-12T03:00:08.657Z,17.10
2018-06-12T03:02:37.078Z,16.90
2018-06-12T03:05:05.563Z,17.00
2018-06-12T03:07:33.983Z,16.80
2018-06-12T03:10:02.398Z,16.90
2018-06-12T03:12:30.942Z,17.00
2018-06-12T03:14:59.361Z,16.90
2018-06-12T03:17:27.798Z,17.10
2018-06-12T03:19:56.198Z,16.90
2018-06-12T03:22:24.714Z,17.00
2018-06-12T03:24:53.182Z,17.00
2018-06-12T03:27:21.611Z,16.90
2018-06-12T03:29:50.034Z,16.90
2018-06-12T03:32:18.469Z,16.90
2018-06-12T03:34:46.884Z,16.90
2018-06-12T03:37:15.298Z,16.80
2018-06-12T03:39:43.700Z,16.80
2018-06-12T03:42:12.122Z,16.70
2018-06-12T03:44:40.505Z,16.70
2018-06-12T03:47:08.901Z,16.80
2018-06-12T03:49:37.286Z,16.60
2018-06-12T03:52:05.714Z,16.40
2018-06-12T03:54:34.102Z,16.50
2018-06-12T03:57:02.507Z,16.50
2018-06-12T03:59:30.905Z,16.60
2018-06-12T04:01:59.348Z,16.60
2018-06-12T04:04:27.731Z,16.70
2018-06-12T04:06:56.137Z,16.50
2018-06-12T04:09:24.610Z,16.60
2018-06-12T04:11:52.993Z,16.70
2018-06-12T04:14:21.402Z,16.60
2018-06-12T04:16:49.906Z,16.50
2018-06-12T04:19:18.287Z,16.40
2018-06-12T04:21:46.669Z,16.40
2018-06-12T04:24:15.089Z,16.20
2018-06-12T04:26:43.470Z,16.20
2018-06-12T04:29:11.952Z,16.20
2018-06-12T04:31:40.333Z,16.20
2018-06-12T04:34:08.827Z,16.20
2018-06-12T04:36:37.237Z,16.20
2018-06-12T04:39:06.806Z,16.20
2018-06-12T04:41:35.208Z,16.10
2018-06-12T04:44:03.670Z,15.90
2018-06-12T04:46:32.137Z,15.90
2018-06-12T04:49:00.610Z,15.80
2018-06-12T04:51:29.101Z,15.80
2018-06-12T04:53:57.573Z,15.80
2018-06-12T04:56:25.995Z,15.70
2018-06-12T04:58:54.426Z,15.90
2018-06-12T05:01:22.854Z,15.90
2018-06-12T05:03:51.289Z,15.80
2018-06-12T05:06:19.713Z,15.80
2018-06-12T05:08:48.187Z,15.60
2018-06-12T05:11:16.593Z,15.80
2018-06-12T05:13:45.023Z,15.80
2018-06-12T05:16:13.473Z,15.70
2018-06-12T05:18:41.899Z,15.60
2018-06-12T05:21:10.314Z,15.70
2018-06-12T05:23:38.750Z,15.60
2018-06-12T05:26:07.185Z,15.40
2018-06-12T05:28:35.634Z,15.60
2018-06-12T05:31:04.059Z,15.50
2018-06-12T05:33:32.469Z,15.60
2018-06-12T05:36:00.881Z,15.60
2018-06-12T05:38:29.282Z,15.60
2018-06-12T05:40:57.689Z,15.70
2018-06-12T05:43:26.098Z,15.80
2018-06-12T05:45:54.538Z,15.80
2018-06-12T05:48:22.921Z,16.00
2018-06-12T05:50:51.581Z,15.80
2018-06-12T05:53:20.010Z,15.80
2018-06-12T05:55:48.466Z,15.80
2018-06-12T05:58:16.866Z,15.90
2018-06-12T06:00:45.278Z,15.90
2018-06-12T06:03:13.670Z,15.90
2018-06-12T06:05:42.086Z,15.80
2018-06-12T06:08:10.470Z,15.60
2018-06-12T06:13:07.026Z,15.60
2018-06-12T06:15:35.445Z,15.50
2018-06-12T06:18:03.896Z,15.60
2018-06-12T06:20:32.314Z,15.60
2018-06-12T06:23:00.703Z,15.80
2018-06-12T06:25:29.133Z,15.80
2018-06-12T06:27:57.530Z,15.80
2018-06-12T06:30:25.946Z,15.60
2018-06-12T06:32:54.382Z,15.60
2018-06-12T06:35:22.839Z,15.50
2018-06-12T06:37:51.233Z,15.50
2018-06-12T06:40:19.691Z,15.70
2018-06-12T06:42:48.098Z,15.60
2018-06-12T06:45:16.534Z,15.70
2018-06-12T06:47:44.961Z,15.60
2018-06-12T06:50:13.374Z,15.60
2018-06-12T06:52:41.825Z,15.60
2018-06-12T06:55:10.226Z,15.60
2018-06-12T06:57:38.665Z,15.50
2018-06-12T07:00:07.111Z,15.60
2018-06-12T07:02:35.538Z,15.60
2018-06-12T07:05:04.038Z,15.60
2018-06-12T07:07:32.467Z,15.80
2018-06-12T07:10:00.877Z,15.70
2018-06-12T07:12:29.325Z,15.90
2018-06-12T07:14:57.795Z,16.10
2018-06-12T07:17:26.165Z,16.20
2018-06-12T07:19:54.563Z,16.20
2018-06-12T07:22:23.007Z,16.10
2018-06-12T07:24:51.414Z,16.10
2018-06-12T07:27:19.841Z,16.10
2018-06-12T07:29:48.255Z,16.30
2018-06-12T07:32:16.715Z,16.40
2018-06-12T07:34:45.125Z,16.50
2018-06-12T07:37:13.558Z,16.50
2018-06-12T07:39:42.014Z,16.30
2018-06-12T07:42:10.481Z,16.20
2018-06-12T07:44:38.906Z,16.50
2018-06-12T07:47:07.321Z,16.40
2018-06-12T07:49:35.750Z,16.20
2018-06-12T07:54:32.309Z,16.60
2018-06-12T07:57:00.726Z,16.70
2018-06-12T07:59:29.154Z,16.70
2018-06-12T08:01:57.575Z,16.80
2018-06-12T08:04:26.016Z,16.80
2018-06-12T08:06:54.456Z,17.10
2018-06-12T08:09:22.883Z,16.90
2018-06-12T08:11:51.295Z,17.10
2018-06-12T08:14:19.717Z,17.20
2018-06-12T08:19:16.252Z,17.20
2018-06-12T08:21:44.675Z,17.30
2018-06-12T08:24:13.105Z,17.40
2018-06-12T08:26:41.510Z,17.50
2018-06-12T08:29:10.002Z,17.50
2018-06-12T08:31:38.431Z,17.50
2018-06-12T08:34:06.958Z,17.50
2018-06-12T08:36:35.366Z,17.50
2018-06-12T08:39:05.861Z,17.40
2018-06-12T08:41:34.258Z,17.50
2018-06-12T08:44:02.897Z,17.50
2018-06-12T08:46:31.331Z,17.50
2018-06-12T08:48:59.762Z,17.50
2018-06-12T08:51:28.189Z,17.50
2018-06-12T08:53:56.626Z,17.40
2018-06-12T08:56:25.046Z,17.50
2018-06-12T08:58:53.470Z,17.60
2018-06-12T09:01:21.877Z,17.50
2018-06-12T09:03:50.310Z,17.30
2018-06-12T09:06:18.725Z,17.50
2018-06-12T09:08:47.129Z,17.50
2018-06-12T09:11:15.573Z,17.40
2018-06-12T09:13:43.981Z,17.40
2018-06-12T09:16:12.429Z,17.60
2018-06-12T09:18:40.837Z,17.50
2018-06-12T09:21:09.263Z,17.40
2018-06-12T09:23:37.693Z,17.70
2018-06-12T09:26:06.126Z,17.90
2018-06-12T09:28:34.581Z,17.90
2018-06-12T09:31:03.009Z,18.00
2018-06-12T09:33:31.421Z,18.20
2018-06-12T09:36:05.115Z,18.10
2018-06-12T09:38:33.509Z,18.20
2018-06-12T09:41:01.919Z,18.20
2018-06-12T09:43:30.334Z,18.20
2018-06-12T09:45:58.742Z,18.00
2018-06-12T09:48:27.137Z,17.80
2018-06-12T09:50:55.558Z,18.00
2018-06-12T09:53:23.965Z,18.10
2018-06-12T09:55:52.389Z,18.20
2018-06-12T09:58:20.765Z,18.10
2018-06-12T10:01:25.159Z,18.40
2018-06-12T10:03:53.862Z,18.60
2018-06-12T10:06:22.269Z,18.60
2018-06-12T10:08:50.726Z,18.70
2018-06-12T10:11:19.133Z,18.80
2018-06-12T10:13:47.517Z,18.80
2018-06-12T10:16:15.922Z,18.60
2018-06-12T10:18:44.356Z,18.60
2018-06-12T10:21:12.765Z,18.50
2018-06-12T10:23:41.149Z,18.40
2018-06-12T10:26:09.558Z,18.30
2018-06-12T10:28:37.973Z,18.20
2018-06-12T10:31:06.426Z,18.20
2018-06-12T10:33:34.845Z,18.20
2018-06-12T10:36:03.247Z,18.20
2018-06-12T10:38:31.682Z,18.10
2018-06-12T10:41:00.076Z,18.00
2018-06-12T10:43:28.489Z,18.10
2018-06-12T10:45:56.870Z,17.70
2018-06-12T10:48:25.281Z,17.70
2018-06-12T10:50:53.678Z,17.50
2018-06-12T10:53:22.077Z,17.60
2018-06-12T10:55:50.508Z,17.70
2018-06-12T10:58:18.969Z,17.80
2018-06-12T11:00:47.423Z,17.90
2018-06-12T11:03:15.850Z,17.60
2018-06-12T11:05:44.806Z,17.30
2018-06-12T11:08:13.245Z,17.40
2018-06-12T11:10:41.650Z,17.50
2018-06-12T11:13:10.062Z,17.30
2018-06-12T11:15:38.471Z,17.40
2018-06-12T11:18:06.971Z,17.30
2018-06-12T11:20:35.381Z,17.40
2018-06-12T11:23:03.840Z,17.10
2018-06-12T11:25:32.245Z,17.40
2018-06-12T11:28:00.681Z,17.50
2018-06-12T11:30:29.111Z,17.70
2018-06-12T11:32:57.590Z,17.80
2018-06-12T11:35:25.941Z,17.80
2018-06-12T11:37:54.378Z,17.70
2018-06-12T11:40:22.879Z,17.70
2018-06-12T11:42:51.289Z,17.70
2018-06-12T11:45:19.682Z,17.90
2018-06-12T11:47:48.147Z,18.10
2018-06-12T11:50:16.569Z,18.20
2018-06-12T11:52:44.953Z,18.30
2018-06-12T11:55:13.390Z,18.20
2018-06-12T11:57:41.788Z,18.20
2018-06-12T12:00:10.222Z,18.30
2018-06-12T12:02:38.602Z,18.20
2018-06-12T12:05:07.038Z,18.30
2018-06-12T12:07:35.458Z,18.20
2018-06-12T12:10:04.926Z,18.20
2018-06-12T12:12:33.323Z,18.40
2018-06-12T12:15:01.742Z,18.20
2018-06-12T12:17:30.138Z,18.30
2018-06-12T12:19:58.865Z,18.20
2018-06-12T12:22:27.259Z,18.30
2018-06-12T12:24:55.670Z,18.10
2018-06-12T12:27:24.054Z,18.20
2018-06-12T12:29:52.473Z,18.20
2018-06-12T12:32:20.895Z,18.00
2018-06-12T12:37:17.565Z,17.80
2018-06-12T12:39:46.029Z,17.70
2018-06-12T12:42:14.469Z,17.90
2018-06-12T12:44:42.938Z,18.00
2018-06-12T12:47:11.401Z,18.10
2018-06-12T12:49:39.878Z,18.20
2018-06-12T12:52:08.297Z,18.10
2018-06-12T12:54:36.721Z,17.90
2018-06-12T12:57:05.254Z,17.80
2018-06-12T12:59:33.681Z,17.90
2018-06-12T13:02:02.412Z,18.00
2018-06-12T13:04:30.809Z,18.00
2018-06-12T13:06:59.246Z,18.10
2018-06-12T13:09:27.649Z,18.10
2018-06-12T13:11:56.107Z,18.00
2018-06-12T13:14:24.510Z,18.00
2018-06-12T13:16:52.934Z,18.00
2018-06-12T13:19:21.338Z,17.90
2018-06-12T13:21:49.778Z,17.80
2018-06-12T13:24:18.186Z,17.70
2018-06-12T13:26:46.617Z,17.50
2018-06-12T13:29:15.050Z,17.80
2018-06-12T13:31:43.498Z,17.80
2018-06-12T13:34:11.917Z,18.00
2018-06-12T13:36:40.341Z,18.00
2018-06-12T13:39:08.741Z,18.00
2018-06-12T13:41:37.161Z,18.10
2018-06-12T13:44:05.565Z,18.10
2018-06-12T13:46:34.055Z,18.20
2018-06-12T13:49:03.517Z,18.30
2018-06-12T13:51:32.044Z,18.40
2018-06-12T13:54:00.474Z,18.30
2018-06-12T13:56:28.913Z,18.60
2018-06-12T13:58:57.329Z,18.80
2018-06-12T14:01:25.769Z,18.80
2018-06-12T14:03:54.555Z,18.60
2018-06-12T14:06:22.974Z,18.80
2018-06-12T14:08:51.377Z,18.70
2018-06-12T14:11:19.814Z,18.80
2018-06-12T14:13:48.210Z,18.90
2018-06-12T14:16:16.637Z,19.10
2018-06-12T14:18:45.048Z,19.10
2018-06-12T14:21:13.456Z,19.00
2018-06-12T14:23:41.884Z,19.20
2018-06-12T14:26:10.286Z,19.20
2018-06-12T14:28:38.714Z,19.20
2018-06-12T14:31:07.138Z,19.10
2018-06-12T14:33:35.579Z,19.00
2018-06-12T14:36:03.970Z,19.00
2018-06-12T14:38:32.382Z,18.90
2018-06-12T14:41:00.771Z,18.70
2018-06-12T14:43:29.178Z,18.50
2018-06-12T14:45:57.558Z,18.80
2018-06-12T14:48:26.010Z,18.80
2018-06-12T14:50:54.390Z,18.60
2018-06-12T14:53:22.800Z,18.60
2018-06-12T14:55:51.191Z,18.70
2018-06-12T14:58:19.593Z,18.80
2018-06-12T15:00:48.799Z,18.90
2018-06-12T15:03:17.234Z,18.80
2018-06-12T15:05:45.624Z,18.90
2018-06-12T15:08:14.033Z,19.00
2018-06-12T15:10:42.434Z,19.20
2018-06-12T15:13:10.855Z,19.10
2018-06-12T15:15:39.274Z,19.20
2018-06-12T15:18:07.686Z,19.30
2018-06-12T15:20:36.081Z,19.20
2018-06-12T15:23:04.481Z,19.30
2018-06-12T15:25:32.882Z,19.30
2018-06-12T15:28:01.290Z,19.30
2018-06-12T15:30:29.705Z,19.40
2018-06-12T15:32:58.133Z,19.20
2018-06-12T15:35:26.541Z,19.10
2018-06-12T15:37:54.941Z,19.00
2018-06-12T15:40:23.378Z,19.10
2018-06-12T15:42:51.765Z,19.00
2018-06-12T15:45:20.163Z,19.00
2018-06-12T15:47:48.543Z,18.90
2018-06-12T15:50:17.002Z,19.10
2018-06-12T15:52:45.417Z,19.00
2018-06-12T15:55:13.830Z,19.10
2018-06-12T15:57:42.209Z,19.30
2018-06-12T16:00:10.614Z,19.30
2018-06-12T16:02:38.997Z,19.10
2018-06-12T16:05:07.421Z,19.10
2018-06-12T16:07:35.818Z,19.00
2018-06-12T16:10:04.259Z,19.20
2018-06-12T16:12:32.666Z,19.10
2018-06-12T16:15:01.078Z,19.20
2018-06-12T16:17:29.453Z,19.20
2018-06-12T16:19:57.849Z,19.30
2018-06-12T16:22:26.248Z,19.30
2018-06-12T16:24:54.651Z,19.20
2018-06-12T16:27:23.073Z,19.20
2018-06-12T16:29:51.494Z,19.00
2018-06-12T16:32:19.878Z,19.10
2018-06-12T16:34:48.326Z,19.00
2018-06-12T16:37:16.730Z,19.00
2018-06-12T16:39:45.158Z,18.90
2018-06-12T16:42:13.558Z,19.00
2018-06-12T16:44:41.970Z,19.00
2018-06-12T16:47:10.393Z,18.90
2018-06-12T16:49:38.823Z,18.90
2018-06-12T16:52:07.249Z,18.90
2018-06-12T16:54:35.646Z,19.00
2018-06-12T16:57:04.097Z,19.00
2018-06-12T16:59:32.533Z,18.80
2018-06-12T17:02:00.957Z,18.90
2018-06-12T17:04:29.368Z,19.00
2018-06-12T17:06:57.802Z,18.60
2018-06-12T17:09:26.249Z,18.70
2018-06-12T17:11:54.671Z,18.50
2018-06-12T17:14:23.090Z,18.60
2018-06-12T17:16:51.530Z,18.60
2018-06-12T17:19:19.953Z,18.70
2018-06-12T17:21:48.520Z,18.90
2018-06-12T17:24:16.931Z,18.90
2018-06-12T17:26:45.401Z,18.70
2018-06-12T17:29:13.838Z,18.80
2018-06-12T17:31:42.278Z,18.70
2018-06-12T17:34:10.713Z,18.90
2018-06-12T17:36:39.151Z,18.50
2018-06-12T17:39:08.025Z,18.40
2018-06-12T17:41:36.474Z,18.50
2018-06-12T17:44:04.886Z,18.60
2018-06-12T17:46:33.311Z,18.60
2018-06-12T17:49:01.713Z,18.70
2018-06-12T17:51:30.169Z,18.70
2018-06-12T17:53:58.583Z,18.80
2018-06-12T17:56:27.007Z,18.80
2018-06-12T17:58:55.409Z,18.60
2018-06-12T18:01:23.854Z,18.60
2018-06-12T18:03:52.257Z,18.70
2018-06-12T18:06:20.682Z,18.50
2018-06-12T18:08:49.078Z,18.50
2018-06-12T18:11:17.545Z,18.50
2018-06-12T18:13:45.950Z,18.40
2018-06-12T18:16:14.369Z,18.30
2018-06-12T18:18:42.789Z,18.40
2018-06-12T18:21:11.240Z,18.30
2018-06-12T18:23:39.694Z,18.30
2018-06-12T18:26:08.099Z,18.40
2018-06-12T18:28:36.526Z,18.20
2018-06-12T18:31:04.954Z,18.20
2018-06-12T18:33:33.385Z,18.00
2018-06-12T18:36:01.774Z,17.90
2018-06-12T18:38:30.191Z,17.90
2018-06-12T18:40:58.595Z,18.00
2018-06-12T18:43:27.002Z,17.90
2018-06-12T18:45:55.389Z,17.80
2018-06-12T18:48:23.798Z,17.90
2018-06-12T18:50:52.215Z,17.90
2018-06-12T18:53:20.683Z,18.00
2018-06-12T18:55:49.072Z,18.00
2018-06-12T18:58:17.478Z,17.80
2018-06-12T19:00:45.878Z,17.80
2018-06-12T19:03:14.289Z,17.80
2018-06-12T19:05:42.666Z,17.80
2018-06-12T19:08:11.071Z,17.60
2018-06-12T19:10:39.518Z,17.70
2018-06-12T19:13:07.933Z,17.70
2018-06-12T19:15:36.316Z,17.70
2018-06-12T19:18:04.978Z,17.70
2018-06-12T19:20:33.365Z,17.70
2018-06-12T19:23:01.774Z,17.80
2018-06-12T19:25:30.182Z,17.80
2018-06-12T19:27:58.593Z,17.90
2018-06-12T19:30:26.981Z,17.80
2018-06-12T19:32:55.445Z,17.80
2018-06-12T19:35:23.860Z,17.80
2018-06-12T19:37:52.273Z,17.70
2018-06-12T19:40:20.706Z,17.70
2018-06-12T19:42:49.121Z,17.70
2018-06-12T19:45:17.604Z,17.70
2018-06-12T19:47:46.120Z,17.80
2018-06-12T19:50:14.580Z,17.60
2018-06-12T19:52:42.989Z,17.60
2018-06-12T19:55:11.519Z,17.50
2018-06-12T19:57:39.925Z,17.60
2018-06-12T20:00:08.415Z,17.60
2018-06-12T20:02:36.817Z,17.50
2018-06-12T20:05:05.264Z,17.60
2018-06-12T20:07:33.722Z,17.40
2018-06-12T20:10:06.314Z,17.50
2018-06-12T20:12:34.977Z,17.50
2018-06-12T20:15:06.796Z,17.50
2018-06-12T20:17:35.600Z,17.40
2018-06-12T20:20:06.675Z,17.40
2018-06-12T20:22:35.776Z,17.40
2018-06-12T20:25:04.254Z,17.30
2018-06-12T20:27:32.674Z,17.40
2018-06-12T20:30:01.113Z,17.30
2018-06-12T20:32:29.505Z,17.20
2018-06-12T20:34:57.953Z,17.20
2018-06-12T20:37:26.350Z,17.10
2018-06-12T20:39:54.770Z,17.20
2018-06-12T20:42:23.258Z,17.00
2018-06-12T20:44:51.678Z,17.10
2018-06-12T20:47:20.090Z,17.00
2018-06-12T20:49:48.533Z,17.00
2018-06-12T20:52:16.929Z,17.20
2018-06-12T20:54:45.354Z,17.30
2018-06-12T20:57:13.792Z,17.10
2018-06-12T20:59:42.214Z,17.00
2018-06-12T21:02:10.610Z,17.00
2018-06-12T21:04:39.061Z,16.80
2018-06-12T21:07:07.581Z,16.90
2018-06-12T21:09:35.918Z,16.80
2018-06-12T21:12:04.309Z,17.00
2018-06-12T21:14:32.710Z,16.70
2018-06-12T21:17:01.163Z,16.70
2018-06-12T21:19:29.574Z,16.70
2018-06-12T21:21:58.010Z,16.90
2018-06-12T21:24:26.415Z,16.80
2018-06-12T21:26:54.834Z,16.80
2018-06-12T21:29:23.248Z,16.70
2018-06-12T21:31:51.678Z,16.70
2018-06-12T21:34:20.134Z,16.70
2018-06-12T21:36:48.602Z,16.70
2018-06-12T21:39:17.029Z,16.80
2018-06-12T21:41:45.622Z,16.80
2018-06-12T21:44:14.030Z,16.80
2018-06-12T21:46:42.457Z,16.60
2018-06-12T21:49:10.873Z,16.70
2018-06-12T21:51:39.293Z,16.80
2018-06-12T21:54:07.701Z,16.80
2018-06-12T21:56:36.225Z,16.80
2018-06-12T21:59:04.866Z,16.50
2018-06-12T22:01:33.297Z,16.50
2018-06-12T22:04:01.706Z,16.30
2018-06-12T22:06:30.149Z,16.30
2018-06-12T22:08:58.562Z,16.30
2018-06-12T22:11:26.994Z,16.40
2018-06-12T22:13:55.438Z,16.30
2018-06-12T22:16:24.165Z,16.30
2018-06-12T22:18:53.181Z,16.30
2018-06-12T22:21:21.621Z,16.30
2018-06-12T22:23:50.036Z,16.20
2018-06-12T22:26:18.457Z,16.10
2018-06-12T22:28:46.870Z,16.10
2018-06-12T22:31:15.302Z,16.10
2018-06-12T22:33:43.714Z,16.20
2018-06-12T22:36:12.114Z,16.20
2018-06-12T22:38:40.494Z,16.00
2018-06-12T22:41:08.898Z,16.00
2018-06-12T22:43:37.344Z,15.90
2018-06-12T22:46:05.802Z,15.80
2018-06-12T22:48:34.193Z,16.10
2018-06-12T22:51:02.582Z,16.00
2018-06-12T22:53:30.989Z,16.10
2018-06-12T22:55:59.386Z,16.10
2018-06-12T22:58:27.813Z,16.10
2018-06-12T23:00:56.210Z,16.10
2018-06-12T23:03:24.609Z,16.20
2018-06-12T23:05:52.990Z,16.10
2018-06-12T23:08:21.429Z,16.10
2018-06-12T23:10:49.819Z,16.20
2018-06-12T23:13:18.219Z,16.10
2018-06-12T23:15:46.596Z,15.90
2018-06-12T23:18:15.846Z,15.90
2018-06-12T23:20:55.778Z,16.10
2018-06-12T23:23:24.177Z,16.10
2018-06-12T23:25:52.562Z,16.10
2018-06-12T23:28:20.975Z,16.20
2018-06-12T23:30:49.356Z,16.00
2018-06-12T23:33:17.797Z,16.00
2018-06-12T23:35:46.198Z,15.90
2018-06-12T23:38:14.634Z,15.90
2018-06-12T23:40:43.041Z,15.90
2018-06-12T23:43:11.462Z,16.00
2018-06-12T23:45:39.861Z,15.90
2018-06-12T23:48:08.289Z,15.90
2018-06-12T23:50:36.681Z,15.90
2018-06-12T23:53:05.098Z,15.90
2018-06-12T23:55:33.502Z,15.70
2018-06-12T23:58:01.977Z,15.70
